sensor_id;sensor_type;location;lat;lon;timestamp;temperature;humidity
54485;DHT22;45006;56.958;24.166;2022-12-07T00:01:29;20.90;73.30
54485;DHT22;45006;56.958;24.166;2022-12-07T00:03:58;20.90;73.40
54485;DHT22;45006;56.958;24.166;2022-12-07T00:06:37;20.90;73.30
54485;DHT22;45006;56.958;24.166;2022-12-07T00:09:05;20.90;73.40
54485;DHT22;45006;56.958;24.166;2022-12-07T00:11:33;20.90;73.30
54485;DHT22;45006;56.958;24.166;2022-12-07T00:14:02;20.90;73.30
54485;DHT22;45006;56.958;24.166;2022-12-07T00:16:31;20.90;73.50
54485;DHT22;45006;56.958;24.166;2022-12-07T00:18:59;20.90;73.40
54485;DHT22;45006;56.958;24.166;2022-12-07T00:21:28;20.90;73.40
54485;DHT22;45006;56.958;24.166;2022-12-07T00:23:56;20.90;73.60
54485;DHT22;45006;56.958;24.166;2022-12-07T00:26:28;20.90;73.80
54485;DHT22;45006;56.958;24.166;2022-12-07T00:28:58;20.90;73.70
54485;DHT22;45006;56.958;24.166;2022-12-07T00:31:31;20.90;73.70
54485;DHT22;45006;56.958;24.166;2022-12-07T00:34:00;20.90;74.00
54485;DHT22;45006;56.958;24.166;2022-12-07T00:36:27;20.90;73.50
54485;DHT22;45006;56.958;24.166;2022-12-07T00:38:55;20.90;73.70
54485;DHT22;45006;56.958;24.166;2022-12-07T00:41:24;20.90;73.80
54485;DHT22;45006;56.958;24.166;2022-12-07T00:43:52;20.90;73.70
54485;DHT22;45006;56.958;24.166;2022-12-07T00:46:20;20.90;73.80
54485;DHT22;45006;56.958;24.166;2022-12-07T00:48:48;20.90;73.60
54485;DHT22;45006;56.958;24.166;2022-12-07T00:51:17;20.90;73.50
54485;DHT22;45006;56.958;24.166;2022-12-07T00:53:45;20.90;73.70
54485;DHT22;45006;56.958;24.166;2022-12-07T00:56:17;20.90;73.50
54485;DHT22;45006;56.958;24.166;2022-12-07T00:58:50;20.90;73.70
54485;DHT22;45006;56.958;24.166;2022-12-07T01:01:17;20.90;73.80
54485;DHT22;45006;56.958;24.166;2022-12-07T01:03:44;20.90;73.80
54485;DHT22;45006;56.958;24.166;2022-12-07T01:06:15;20.90;74.10
54485;DHT22;45006;56.958;24.166;2022-12-07T01:08:42;20.90;74.00
54485;DHT22;45006;56.958;24.166;2022-12-07T01:11:13;20.90;74.20
54485;DHT22;45006;56.958;24.166;2022-12-07T01:13:40;20.90;74.30
54485;DHT22;45006;56.958;24.166;2022-12-07T01:16:09;20.90;74.40
54485;DHT22;45006;56.958;24.166;2022-12-07T01:18:37;20.90;74.40
54485;DHT22;45006;56.958;24.166;2022-12-07T01:21:10;20.90;75.20
54485;DHT22;45006;56.958;24.166;2022-12-07T01:23:38;20.90;75.10
54485;DHT22;45006;56.958;24.166;2022-12-07T01:26:09;20.90;75.10
54485;DHT22;45006;56.958;24.166;2022-12-07T01:28:36;20.90;75.40
54485;DHT22;45006;56.958;24.166;2022-12-07T01:31:05;20.90;75.20
54485;DHT22;45006;56.958;24.166;2022-12-07T01:33:35;20.90;75.00
54485;DHT22;45006;56.958;24.166;2022-12-07T01:36:17;20.90;74.80
54485;DHT22;45006;56.958;24.166;2022-12-07T01:38:46;20.90;74.80
54485;DHT22;45006;56.958;24.166;2022-12-07T01:41:13;20.90;74.80
54485;DHT22;45006;56.958;24.166;2022-12-07T01:46:37;20.90;74.70
54485;DHT22;45006;56.958;24.166;2022-12-07T01:49:07;20.90;74.70
54485;DHT22;45006;56.958;24.166;2022-12-07T01:51:37;20.90;74.60
54485;DHT22;45006;56.958;24.166;2022-12-07T01:54:06;20.90;74.70
54485;DHT22;45006;56.958;24.166;2022-12-07T01:56:33;20.90;75.00
54485;DHT22;45006;56.958;24.166;2022-12-07T01:59:00;20.90;74.60
54485;DHT22;45006;56.958;24.166;2022-12-07T02:01:28;20.90;74.60
54485;DHT22;45006;56.958;24.166;2022-12-07T02:03:55;20.90;74.50
54485;DHT22;45006;56.958;24.166;2022-12-07T02:06:24;20.90;74.30
54485;DHT22;45006;56.958;24.166;2022-12-07T02:08:52;20.90;74.20
54485;DHT22;45006;56.958;24.166;2022-12-07T02:11:20;20.90;74.20
54485;DHT22;45006;56.958;24.166;2022-12-07T02:13:47;21.00;74.00
54485;DHT22;45006;56.958;24.166;2022-12-07T02:21:58;20.90;73.70
54485;DHT22;45006;56.958;24.166;2022-12-07T02:24:52;21.00;73.70
54485;DHT22;45006;56.958;24.166;2022-12-07T02:27:52;20.90;73.50
54485;DHT22;45006;56.958;24.166;2022-12-07T02:30:28;21.00;73.60
54485;DHT22;45006;56.958;24.166;2022-12-07T02:33:02;20.90;73.50
54485;DHT22;45006;56.958;24.166;2022-12-07T02:40:55;20.90;73.60
54485;DHT22;45006;56.958;24.166;2022-12-07T02:43:30;21.00;73.90
54485;DHT22;45006;56.958;24.166;2022-12-07T02:48:29;20.90;72.80
54485;DHT22;45006;56.958;24.166;2022-12-07T02:50:58;20.90;73.30
54485;DHT22;45006;56.958;24.166;2022-12-07T02:53:42;20.90;73.20
54485;DHT22;45006;56.958;24.166;2022-12-07T03:07:16;20.90;72.80
54485;DHT22;45006;56.958;24.166;2022-12-07T03:12:45;20.90;72.80
54485;DHT22;45006;56.958;24.166;2022-12-07T03:15:20;21.00;72.90
54485;DHT22;45006;56.958;24.166;2022-12-07T03:17:49;20.90;72.70
54485;DHT22;45006;56.958;24.166;2022-12-07T03:20:20;21.00;72.60
54485;DHT22;45006;56.958;24.166;2022-12-07T03:22:48;21.00;72.60
54485;DHT22;45006;56.958;24.166;2022-12-07T03:25:17;21.00;72.60
54485;DHT22;45006;56.958;24.166;2022-12-07T03:27:54;20.90;72.50
54485;DHT22;45006;56.958;24.166;2022-12-07T03:30:27;21.00;72.60
54485;DHT22;45006;56.958;24.166;2022-12-07T03:33:20;20.90;72.50
54485;DHT22;45006;56.958;24.166;2022-12-07T03:41:19;21.00;72.40
54485;DHT22;45006;56.958;24.166;2022-12-07T03:43:49;21.00;72.30
54485;DHT22;45006;56.958;24.166;2022-12-07T03:52:34;21.00;72.40
54485;DHT22;45006;56.958;24.166;2022-12-07T03:55:09;21.00;72.20
54485;DHT22;45006;56.958;24.166;2022-12-07T03:57:38;21.00;72.30
54485;DHT22;45006;56.958;24.166;2022-12-07T04:00:07;21.00;72.10
54485;DHT22;45006;56.958;24.166;2022-12-07T04:02:34;20.90;72.10
54485;DHT22;45006;56.958;24.166;2022-12-07T04:05:02;21.00;72.20
54485;DHT22;45006;56.958;24.166;2022-12-07T04:07:29;21.00;72.30
54485;DHT22;45006;56.958;24.166;2022-12-07T04:09:57;21.00;72.30
54485;DHT22;45006;56.958;24.166;2022-12-07T04:12:24;21.00;72.20
54485;DHT22;45006;56.958;24.166;2022-12-07T04:14:51;21.00;72.20
54485;DHT22;45006;56.958;24.166;2022-12-07T04:17:17;21.00;72.10
54485;DHT22;45006;56.958;24.166;2022-12-07T04:19:44;21.00;72.20
54485;DHT22;45006;56.958;24.166;2022-12-07T04:22:11;21.00;72.00
54485;DHT22;45006;56.958;24.166;2022-12-07T04:24:38;20.90;72.00
54485;DHT22;45006;56.958;24.166;2022-12-07T04:27:05;21.00;72.00
54485;DHT22;45006;56.958;24.166;2022-12-07T04:29:32;20.90;71.90
54485;DHT22;45006;56.958;24.166;2022-12-07T04:31:59;21.00;71.90
54485;DHT22;45006;56.958;24.166;2022-12-07T04:34:26;20.90;71.90
54485;DHT22;45006;56.958;24.166;2022-12-07T04:36:53;21.00;71.90
54485;DHT22;45006;56.958;24.166;2022-12-07T04:39:24;21.00;71.90
54485;DHT22;45006;56.958;24.166;2022-12-07T04:41:51;21.00;71.90
54485;DHT22;45006;56.958;24.166;2022-12-07T04:44:18;21.00;71.90
54485;DHT22;45006;56.958;24.166;2022-12-07T04:46:45;21.00;71.90
54485;DHT22;45006;56.958;24.166;2022-12-07T04:49:14;20.90;71.90
54485;DHT22;45006;56.958;24.166;2022-12-07T04:51:41;21.00;71.80
54485;DHT22;45006;56.958;24.166;2022-12-07T04:54:08;21.00;71.80
54485;DHT22;45006;56.958;24.166;2022-12-07T04:56:35;20.90;71.80
54485;DHT22;45006;56.958;24.166;2022-12-07T04:59:03;20.90;71.70
54485;DHT22;45006;56.958;24.166;2022-12-07T05:01:31;21.00;71.80
54485;DHT22;45006;56.958;24.166;2022-12-07T05:03:58;21.00;71.80
54485;DHT22;45006;56.958;24.166;2022-12-07T05:06:25;21.00;71.80
54485;DHT22;45006;56.958;24.166;2022-12-07T05:08:52;21.00;71.90
54485;DHT22;45006;56.958;24.166;2022-12-07T05:11:19;21.00;71.90
54485;DHT22;45006;56.958;24.166;2022-12-07T05:14:16;20.90;71.90
54485;DHT22;45006;56.958;24.166;2022-12-07T05:16:45;21.00;71.90
54485;DHT22;45006;56.958;24.166;2022-12-07T05:19:13;21.00;71.90
54485;DHT22;45006;56.958;24.166;2022-12-07T05:21:40;21.00;72.00
54485;DHT22;45006;56.958;24.166;2022-12-07T05:24:09;20.90;71.90
54485;DHT22;45006;56.958;24.166;2022-12-07T05:26:36;21.00;72.20
54485;DHT22;45006;56.958;24.166;2022-12-07T05:29:03;21.00;72.30
54485;DHT22;45006;56.958;24.166;2022-12-07T05:31:30;21.00;72.30
54485;DHT22;45006;56.958;24.166;2022-12-07T05:33:57;20.90;72.20
54485;DHT22;45006;56.958;24.166;2022-12-07T05:36:24;21.00;72.30
54485;DHT22;45006;56.958;24.166;2022-12-07T05:38:51;20.90;72.20
54485;DHT22;45006;56.958;24.166;2022-12-07T05:41:18;21.00;72.40
54485;DHT22;45006;56.958;24.166;2022-12-07T05:44:04;20.90;72.40
54485;DHT22;45006;56.958;24.166;2022-12-07T05:46:32;20.90;72.40
54485;DHT22;45006;56.958;24.166;2022-12-07T05:48:59;20.90;72.40
54485;DHT22;45006;56.958;24.166;2022-12-07T05:51:26;20.90;72.40
54485;DHT22;45006;56.958;24.166;2022-12-07T05:53:53;20.90;72.60
54485;DHT22;45006;56.958;24.166;2022-12-07T05:56:20;20.90;72.60
54485;DHT22;45006;56.958;24.166;2022-12-07T05:58:47;20.90;72.60
54485;DHT22;45006;56.958;24.166;2022-12-07T06:01:32;20.90;72.70
54485;DHT22;45006;56.958;24.166;2022-12-07T06:03:59;20.90;72.60
54485;DHT22;45006;56.958;24.166;2022-12-07T06:06:26;20.90;72.80
54485;DHT22;45006;56.958;24.166;2022-12-07T06:08:53;20.90;72.80
54485;DHT22;45006;56.958;24.166;2022-12-07T06:11:20;20.90;72.80
54485;DHT22;45006;56.958;24.166;2022-12-07T06:14:05;20.90;73.60
54485;DHT22;45006;56.958;24.166;2022-12-07T06:16:32;20.90;73.00
54485;DHT22;45006;56.958;24.166;2022-12-07T06:18:59;20.90;73.00
54485;DHT22;45006;56.958;24.166;2022-12-07T06:21:26;20.90;73.10
54485;DHT22;45006;56.958;24.166;2022-12-07T06:23:53;20.90;73.10
54485;DHT22;45006;56.958;24.166;2022-12-07T06:26:20;20.90;73.20
54485;DHT22;45006;56.958;24.166;2022-12-07T06:28:47;20.90;73.90
54485;DHT22;45006;56.958;24.166;2022-12-07T06:31:14;20.90;73.30
54485;DHT22;45006;56.958;24.166;2022-12-07T06:33:42;20.90;73.40
54485;DHT22;45006;56.958;24.166;2022-12-07T06:36:09;20.90;74.00
54485;DHT22;45006;56.958;24.166;2022-12-07T06:38:36;20.90;73.50
54485;DHT22;45006;56.958;24.166;2022-12-07T06:41:03;20.90;73.50
54485;DHT22;45006;56.958;24.166;2022-12-07T06:43:30;20.90;73.50
54485;DHT22;45006;56.958;24.166;2022-12-07T06:45:57;20.90;73.60
54485;DHT22;45006;56.958;24.166;2022-12-07T06:48:24;20.90;73.60
54485;DHT22;45006;56.958;24.166;2022-12-07T06:50:51;20.90;73.70
54485;DHT22;45006;56.958;24.166;2022-12-07T06:53:21;20.90;73.80
54485;DHT22;45006;56.958;24.166;2022-12-07T06:55:48;20.80;73.70
54485;DHT22;45006;56.958;24.166;2022-12-07T06:58:15;20.90;73.90
54485;DHT22;45006;56.958;24.166;2022-12-07T07:00:42;20.90;73.90
54485;DHT22;45006;56.958;24.166;2022-12-07T07:03:09;20.90;74.00
54485;DHT22;45006;56.958;24.166;2022-12-07T07:05:36;20.90;74.00
54485;DHT22;45006;56.958;24.166;2022-12-07T07:08:03;20.90;74.20
54485;DHT22;45006;56.958;24.166;2022-12-07T07:10:48;20.90;74.10
54485;DHT22;45006;56.958;24.166;2022-12-07T07:13:15;20.80;74.20
54485;DHT22;45006;56.958;24.166;2022-12-07T07:15:42;20.80;74.20
54485;DHT22;45006;56.958;24.166;2022-12-07T07:18:09;20.80;74.40
54485;DHT22;45006;56.958;24.166;2022-12-07T07:20:36;20.80;74.40
54485;DHT22;45006;56.958;24.166;2022-12-07T07:23:03;20.80;74.40
54485;DHT22;45006;56.958;24.166;2022-12-07T07:25:30;20.80;74.30
54485;DHT22;45006;56.958;24.166;2022-12-07T07:27:57;20.80;74.40
54485;DHT22;45006;56.958;24.166;2022-12-07T07:30:24;20.80;74.40
54485;DHT22;45006;56.958;24.166;2022-12-07T07:32:59;20.80;75.10
54485;DHT22;45006;56.958;24.166;2022-12-07T07:35:27;20.80;74.60
54485;DHT22;45006;56.958;24.166;2022-12-07T07:37:54;20.80;74.50
54485;DHT22;45006;56.958;24.166;2022-12-07T07:40:22;20.80;74.70
54485;DHT22;45006;56.958;24.166;2022-12-07T07:42:52;20.80;74.70
54485;DHT22;45006;56.958;24.166;2022-12-07T07:45:21;20.80;74.80
54485;DHT22;45006;56.958;24.166;2022-12-07T07:47:48;20.80;75.30
54485;DHT22;45006;56.958;24.166;2022-12-07T07:50:16;20.80;75.00
54485;DHT22;45006;56.958;24.166;2022-12-07T07:52:43;20.80;75.00
54485;DHT22;45006;56.958;24.166;2022-12-07T07:55:10;20.90;75.10
54485;DHT22;45006;56.958;24.166;2022-12-07T07:57:39;20.80;75.20
54485;DHT22;45006;56.958;24.166;2022-12-07T08:00:13;20.80;75.40
54485;DHT22;45006;56.958;24.166;2022-12-07T08:02:41;20.90;75.40
54485;DHT22;45006;56.958;24.166;2022-12-07T08:05:10;20.90;75.20
54485;DHT22;45006;56.958;24.166;2022-12-07T08:07:39;20.80;74.80
54485;DHT22;45006;56.958;24.166;2022-12-07T08:10:07;20.90;73.90
54485;DHT22;45006;56.958;24.166;2022-12-07T08:12:38;20.90;73.90
54485;DHT22;45006;56.958;24.166;2022-12-07T08:15:27;20.90;73.10
54485;DHT22;45006;56.958;24.166;2022-12-07T08:17:54;20.80;73.00
54485;DHT22;45006;56.958;24.166;2022-12-07T08:20:22;20.80;72.40
54485;DHT22;45006;56.958;24.166;2022-12-07T08:22:49;20.80;72.10
54485;DHT22;45006;56.958;24.166;2022-12-07T08:25:16;20.80;72.00
54485;DHT22;45006;56.958;24.166;2022-12-07T08:27:43;20.80;71.80
54485;DHT22;45006;56.958;24.166;2022-12-07T08:30:10;20.80;71.20
54485;DHT22;45006;56.958;24.166;2022-12-07T08:32:37;20.80;70.70
54485;DHT22;45006;56.958;24.166;2022-12-07T08:35:04;20.80;70.20
54485;DHT22;45006;56.958;24.166;2022-12-07T08:37:32;20.80;69.60
54485;DHT22;45006;56.958;24.166;2022-12-07T08:39:59;20.80;70.00
54485;DHT22;45006;56.958;24.166;2022-12-07T08:42:27;20.80;70.60
54485;DHT22;45006;56.958;24.166;2022-12-07T08:45:09;20.80;70.60
54485;DHT22;45006;56.958;24.166;2022-12-07T08:47:38;20.80;69.40
54485;DHT22;45006;56.958;24.166;2022-12-07T08:50:08;20.80;69.30
54485;DHT22;45006;56.958;24.166;2022-12-07T08:52:37;20.80;69.90
54485;DHT22;45006;56.958;24.166;2022-12-07T08:55:05;20.80;70.00
54485;DHT22;45006;56.958;24.166;2022-12-07T08:57:33;20.80;70.00
54485;DHT22;45006;56.958;24.166;2022-12-07T09:00:03;20.80;69.50
54485;DHT22;45006;56.958;24.166;2022-12-07T09:02:31;20.80;69.50
54485;DHT22;45006;56.958;24.166;2022-12-07T09:04:58;20.80;69.70
54485;DHT22;45006;56.958;24.166;2022-12-07T09:07:25;20.80;69.40
54485;DHT22;45006;56.958;24.166;2022-12-07T09:09:52;20.80;69.40
54485;DHT22;45006;56.958;24.166;2022-12-07T09:12:19;20.80;69.50
54485;DHT22;45006;56.958;24.166;2022-12-07T09:14:46;20.80;69.30
54485;DHT22;45006;56.958;24.166;2022-12-07T09:17:13;20.80;68.90
54485;DHT22;45006;56.958;24.166;2022-12-07T09:19:40;20.80;68.80
54485;DHT22;45006;56.958;24.166;2022-12-07T09:22:09;20.80;68.80
54485;DHT22;45006;56.958;24.166;2022-12-07T09:24:35;20.80;68.80
54485;DHT22;45006;56.958;24.166;2022-12-07T09:27:02;20.80;68.80
54485;DHT22;45006;56.958;24.166;2022-12-07T09:29:29;20.80;68.20
54485;DHT22;45006;56.958;24.166;2022-12-07T09:31:56;20.80;68.80
54485;DHT22;45006;56.958;24.166;2022-12-07T09:34:23;20.80;68.00
54485;DHT22;45006;56.958;24.166;2022-12-07T09:36:50;20.80;67.80
54485;DHT22;45006;56.958;24.166;2022-12-07T09:39:17;20.80;67.90
54485;DHT22;45006;56.958;24.166;2022-12-07T09:41:44;20.80;67.80
54485;DHT22;45006;56.958;24.166;2022-12-07T09:44:14;20.80;67.70
54485;DHT22;45006;56.958;24.166;2022-12-07T09:46:44;20.80;67.70
54485;DHT22;45006;56.958;24.166;2022-12-07T09:49:16;20.80;68.10
54485;DHT22;45006;56.958;24.166;2022-12-07T09:51:44;20.80;68.00
54485;DHT22;45006;56.958;24.166;2022-12-07T09:54:16;20.80;67.50
54485;DHT22;45006;56.958;24.166;2022-12-07T09:56:43;20.80;67.10
54485;DHT22;45006;56.958;24.166;2022-12-07T09:59:16;20.80;68.00
54485;DHT22;45006;56.958;24.166;2022-12-07T10:01:47;20.80;67.60
54485;DHT22;45006;56.958;24.166;2022-12-07T10:04:19;20.80;67.00
54485;DHT22;45006;56.958;24.166;2022-12-07T10:06:46;20.80;67.20
54485;DHT22;45006;56.958;24.166;2022-12-07T10:09:16;20.80;67.70
54485;DHT22;45006;56.958;24.166;2022-12-07T10:11:59;20.80;66.50
54485;DHT22;45006;56.958;24.166;2022-12-07T10:14:29;20.80;67.00
54485;DHT22;45006;56.958;24.166;2022-12-07T10:23:03;20.80;67.20
54485;DHT22;45006;56.958;24.166;2022-12-07T10:25:36;20.80;66.60
54485;DHT22;45006;56.958;24.166;2022-12-07T10:28:12;20.80;67.10
54485;DHT22;45006;56.958;24.166;2022-12-07T10:30:52;20.80;67.10
54485;DHT22;45006;56.958;24.166;2022-12-07T10:33:32;20.80;67.10
54485;DHT22;45006;56.958;24.166;2022-12-07T10:36:01;20.80;66.80
54485;DHT22;45006;56.958;24.166;2022-12-07T10:38:45;20.80;66.60
54485;DHT22;45006;56.958;24.166;2022-12-07T10:41:12;20.80;66.90
54485;DHT22;45006;56.958;24.166;2022-12-07T10:43:56;20.80;66.80
54485;DHT22;45006;56.958;24.166;2022-12-07T10:46:49;20.80;66.90
54485;DHT22;45006;56.958;24.166;2022-12-07T10:55:28;20.80;66.50
54485;DHT22;45006;56.958;24.166;2022-12-07T11:10:26;20.80;66.40
54485;DHT22;45006;56.958;24.166;2022-12-07T11:20:39;20.80;66.60
54485;DHT22;45006;56.958;24.166;2022-12-07T11:23:11;20.80;66.50
54485;DHT22;45006;56.958;24.166;2022-12-07T11:25:49;20.80;65.90
54485;DHT22;45006;56.958;24.166;2022-12-07T11:31:21;20.80;66.30
54485;DHT22;45006;56.958;24.166;2022-12-07T11:36:57;20.80;66.20
54485;DHT22;45006;56.958;24.166;2022-12-07T11:39:33;20.80;66.30
54485;DHT22;45006;56.958;24.166;2022-12-07T11:42:06;20.80;66.20
54485;DHT22;45006;56.958;24.166;2022-12-07T11:44:39;20.80;66.30
54485;DHT22;45006;56.958;24.166;2022-12-07T11:47:35;20.80;66.10
54485;DHT22;45006;56.958;24.166;2022-12-07T11:50:27;20.80;66.00
54485;DHT22;45006;56.958;24.166;2022-12-07T11:53:10;20.80;66.10
54485;DHT22;45006;56.958;24.166;2022-12-07T11:59:02;20.80;66.90
54485;DHT22;45006;56.958;24.166;2022-12-07T12:06:42;20.80;66.50
54485;DHT22;45006;56.958;24.166;2022-12-07T12:09:31;20.80;66.40
54485;DHT22;45006;56.958;24.166;2022-12-07T12:23:46;20.80;66.00
54485;DHT22;45006;56.958;24.166;2022-12-07T12:26:20;20.70;66.80
54485;DHT22;45006;56.958;24.166;2022-12-07T12:28:50;20.70;66.80
54485;DHT22;45006;56.958;24.166;2022-12-07T12:33:51;20.70;67.00
54485;DHT22;45006;56.958;24.166;2022-12-07T12:39:09;20.60;67.00
54485;DHT22;45006;56.958;24.166;2022-12-07T12:46:53;20.60;66.00
54485;DHT22;45006;56.958;24.166;2022-12-07T12:54:22;20.60;66.00
54485;DHT22;45006;56.958;24.166;2022-12-07T13:20:44;20.60;66.60
54485;DHT22;45006;56.958;24.166;2022-12-07T13:23:12;20.60;66.90
54485;DHT22;45006;56.958;24.166;2022-12-07T13:25:55;20.60;67.20
54485;DHT22;45006;56.958;24.166;2022-12-07T13:28:23;20.60;67.30
54485;DHT22;45006;56.958;24.166;2022-12-07T13:31:12;20.60;67.40
54485;DHT22;45006;56.958;24.166;2022-12-07T13:33:43;20.60;67.50
54485;DHT22;45006;56.958;24.166;2022-12-07T13:36:24;20.60;67.70
54485;DHT22;45006;56.958;24.166;2022-12-07T13:38:57;20.60;67.70
54485;DHT22;45006;56.958;24.166;2022-12-07T13:41:28;20.60;67.80
54485;DHT22;45006;56.958;24.166;2022-12-07T13:44:15;20.60;67.70
54485;DHT22;45006;56.958;24.166;2022-12-07T13:46:44;20.60;67.70
54485;DHT22;45006;56.958;24.166;2022-12-07T13:49:28;20.50;67.70
54485;DHT22;45006;56.958;24.166;2022-12-07T13:52:17;20.60;67.70
54485;DHT22;45006;56.958;24.166;2022-12-07T13:54:56;20.50;67.70
54485;DHT22;45006;56.958;24.166;2022-12-07T13:57:29;20.50;67.70
54485;DHT22;45006;56.958;24.166;2022-12-07T14:00:03;20.60;67.90
54485;DHT22;45006;56.958;24.166;2022-12-07T14:02:32;20.50;67.90
54485;DHT22;45006;56.958;24.166;2022-12-07T14:08:05;20.50;68.00
54485;DHT22;45006;56.958;24.166;2022-12-07T14:10:33;20.50;68.00
54485;DHT22;45006;56.958;24.166;2022-12-07T14:13:03;20.50;68.10
54485;DHT22;45006;56.958;24.166;2022-12-07T14:15:33;20.50;68.10
54485;DHT22;45006;56.958;24.166;2022-12-07T14:18:02;20.50;68.20
54485;DHT22;45006;56.958;24.166;2022-12-07T14:20:36;20.50;68.20
54485;DHT22;45006;56.958;24.166;2022-12-07T14:23:05;20.50;68.20
54485;DHT22;45006;56.958;24.166;2022-12-07T14:25:49;20.50;68.90
54485;DHT22;45006;56.958;24.166;2022-12-07T14:28:31;20.50;68.30
54485;DHT22;45006;56.958;24.166;2022-12-07T14:30:59;20.50;68.40
54485;DHT22;45006;56.958;24.166;2022-12-07T14:33:27;20.50;68.50
54485;DHT22;45006;56.958;24.166;2022-12-07T14:35:54;20.50;68.60
54485;DHT22;45006;56.958;24.166;2022-12-07T14:38:22;20.50;68.60
54485;DHT22;45006;56.958;24.166;2022-12-07T14:40:50;20.50;68.70
54485;DHT22;45006;56.958;24.166;2022-12-07T14:43:18;20.50;68.80
54485;DHT22;45006;56.958;24.166;2022-12-07T14:45:46;20.50;68.90
54485;DHT22;45006;56.958;24.166;2022-12-07T14:48:14;20.50;69.00
54485;DHT22;45006;56.958;24.166;2022-12-07T14:51:02;20.50;69.00
54485;DHT22;45006;56.958;24.166;2022-12-07T14:53:50;20.50;69.10
54485;DHT22;45006;56.958;24.166;2022-12-07T14:56:24;20.50;69.20
54485;DHT22;45006;56.958;24.166;2022-12-07T14:58:51;20.50;69.30
54485;DHT22;45006;56.958;24.166;2022-12-07T15:01:18;20.50;69.40
54485;DHT22;45006;56.958;24.166;2022-12-07T15:03:45;20.50;69.40
54485;DHT22;45006;56.958;24.166;2022-12-07T15:06:17;20.50;69.40
54485;DHT22;45006;56.958;24.166;2022-12-07T15:08:44;20.50;69.50
54485;DHT22;45006;56.958;24.166;2022-12-07T15:11:14;20.50;69.50
54485;DHT22;45006;56.958;24.166;2022-12-07T15:13:41;20.50;69.50
54485;DHT22;45006;56.958;24.166;2022-12-07T15:16:26;20.50;69.50
54485;DHT22;45006;56.958;24.166;2022-12-07T15:19:14;20.50;69.50
54485;DHT22;45006;56.958;24.166;2022-12-07T15:21:57;20.50;69.50
54485;DHT22;45006;56.958;24.166;2022-12-07T15:24:25;20.50;69.60
54485;DHT22;45006;56.958;24.166;2022-12-07T15:26:52;20.50;69.60
54485;DHT22;45006;56.958;24.166;2022-12-07T15:29:19;20.50;69.70
54485;DHT22;45006;56.958;24.166;2022-12-07T15:31:52;20.50;69.60
54485;DHT22;45006;56.958;24.166;2022-12-07T15:34:26;20.50;69.60
54485;DHT22;45006;56.958;24.166;2022-12-07T15:37:03;20.50;69.50
54485;DHT22;45006;56.958;24.166;2022-12-07T15:39:30;20.50;69.50
54485;DHT22;45006;56.958;24.166;2022-12-07T15:41:57;20.50;69.50
54485;DHT22;45006;56.958;24.166;2022-12-07T15:44:24;20.50;69.50
54485;DHT22;45006;56.958;24.166;2022-12-07T15:47:09;20.50;69.40
54485;DHT22;45006;56.958;24.166;2022-12-07T15:49:36;20.50;69.40
54485;DHT22;45006;56.958;24.166;2022-12-07T15:52:03;20.50;69.40
54485;DHT22;45006;56.958;24.166;2022-12-07T15:54:31;20.50;69.40
54485;DHT22;45006;56.958;24.166;2022-12-07T15:56:59;20.40;69.30
54485;DHT22;45006;56.958;24.166;2022-12-07T15:59:27;20.50;69.40
54485;DHT22;45006;56.958;24.166;2022-12-07T16:01:55;20.40;69.90
54485;DHT22;45006;56.958;24.166;2022-12-07T16:04:22;20.40;69.30
54485;DHT22;45006;56.958;24.166;2022-12-07T16:06:49;20.40;69.30
54485;DHT22;45006;56.958;24.166;2022-12-07T16:09:18;20.40;69.40
54485;DHT22;45006;56.958;24.166;2022-12-07T16:11:45;20.50;69.60
54485;DHT22;45006;56.958;24.166;2022-12-07T16:14:12;20.40;69.70
54485;DHT22;45006;56.958;24.166;2022-12-07T16:16:39;20.50;69.70
54485;DHT22;45006;56.958;24.166;2022-12-07T16:19:07;20.50;69.60
54485;DHT22;45006;56.958;24.166;2022-12-07T16:21:35;20.50;69.50
54485;DHT22;45006;56.958;24.166;2022-12-07T16:24:03;20.50;69.60
54485;DHT22;45006;56.958;24.166;2022-12-07T16:26:30;20.50;69.50
54485;DHT22;45006;56.958;24.166;2022-12-07T16:28:57;20.50;69.50
54485;DHT22;45006;56.958;24.166;2022-12-07T16:31:27;20.50;69.50
54485;DHT22;45006;56.958;24.166;2022-12-07T16:33:57;20.50;69.50
54485;DHT22;45006;56.958;24.166;2022-12-07T16:36:25;20.50;69.50
54485;DHT22;45006;56.958;24.166;2022-12-07T16:39:14;20.50;69.60
54485;DHT22;45006;56.958;24.166;2022-12-07T16:41:41;20.40;69.60
54485;DHT22;45006;56.958;24.166;2022-12-07T16:44:10;20.50;69.60
54485;DHT22;45006;56.958;24.166;2022-12-07T16:46:37;20.50;69.60
54485;DHT22;45006;56.958;24.166;2022-12-07T16:49:05;20.40;69.60
54485;DHT22;45006;56.958;24.166;2022-12-07T16:51:32;20.50;69.60
54485;DHT22;45006;56.958;24.166;2022-12-07T16:54:01;20.40;69.50
54485;DHT22;45006;56.958;24.166;2022-12-07T16:56:28;20.50;69.40
54485;DHT22;45006;56.958;24.166;2022-12-07T16:58:58;20.50;69.30
54485;DHT22;45006;56.958;24.166;2022-12-07T17:01:25;20.50;69.30
54485;DHT22;45006;56.958;24.166;2022-12-07T17:03:56;20.50;69.20
54485;DHT22;45006;56.958;24.166;2022-12-07T17:06:25;20.40;69.00
54485;DHT22;45006;56.958;24.166;2022-12-07T17:08:53;20.50;69.00
54485;DHT22;45006;56.958;24.166;2022-12-07T17:11:28;20.50;69.00
54485;DHT22;45006;56.958;24.166;2022-12-07T17:13:55;20.50;68.90
54485;DHT22;45006;56.958;24.166;2022-12-07T17:16:41;20.50;68.90
54485;DHT22;45006;56.958;24.166;2022-12-07T17:19:11;20.40;68.80
54485;DHT22;45006;56.958;24.166;2022-12-07T17:21:38;20.40;68.80
54485;DHT22;45006;56.958;24.166;2022-12-07T17:24:07;20.40;68.70
54485;DHT22;45006;56.958;24.166;2022-12-07T17:26:35;20.50;68.70
54485;DHT22;45006;56.958;24.166;2022-12-07T17:29:04;20.50;68.70
54485;DHT22;45006;56.958;24.166;2022-12-07T17:31:31;20.50;68.70
54485;DHT22;45006;56.958;24.166;2022-12-07T17:34:01;20.40;68.60
54485;DHT22;45006;56.958;24.166;2022-12-07T17:36:30;20.50;68.50
54485;DHT22;45006;56.958;24.166;2022-12-07T17:38:57;20.40;68.60
54485;DHT22;45006;56.958;24.166;2022-12-07T17:41:27;20.40;68.50
54485;DHT22;45006;56.958;24.166;2022-12-07T17:44:17;20.50;68.50
54485;DHT22;45006;56.958;24.166;2022-12-07T17:46:46;20.40;68.30
54485;DHT22;45006;56.958;24.166;2022-12-07T17:49:13;20.50;68.30
54485;DHT22;45006;56.958;24.166;2022-12-07T17:51:41;20.40;68.30
54485;DHT22;45006;56.958;24.166;2022-12-07T17:54:26;20.40;68.30
54485;DHT22;45006;56.958;24.166;2022-12-07T17:56:54;20.40;68.20
54485;DHT22;45006;56.958;24.166;2022-12-07T17:59:21;20.50;68.20